Terminal Aerodrome Forecast
Issued by NWS Greer, SC

Home | Current Version | Previous Version | Text Only | Print | Product List | Glossary On
Versions: 1 2 3 4 5 6 7 8 9 10 11 12 13 14 15 16 17 18 19 20 21 22 23 24 25 26 27 28 29 30 31 32 33 34 35 36 37 38 39 40 41 42 43 44
703
FTUS42 KGSP 241739
TAFCLT
TAF
KCLT 241739Z 2418/2518 19004KT P6SM SCT040
     FM242300 17005KT P6SM FEW100 SCT250
     FM250800 19006KT P6SM BKN013 OVC035 PROB30 2512/2515 5SM -SHRA
      OVC008
     FM251500 22012KT P6SM SCT035=

USA.gov is the U.S. government's official web portal to all federal, state and local government web resources and services.